KERV/ERV METAR and TAF weather

Enter ICAO airport designator
Station Type Date Time Source
KERV METAR 2022/06/28 14:35 UTC NOAA

KERV 281435Z AUTO 00000KT 10SM BKN047 OVC120 25/19 A3020 RMK AO2 T02510185


Station Type Date Time Source
KERV Decoded METAR 2022/06/28 14:35 UTC NOAA

Kerrville, Kerrville Municipal Airport/Louis Schreiner Field, TX, United States (KERV) 29-58N 099-05W
Jun 28, 2022 - 10:35 AM EDT / 2022.06.28 1435 UTC
Wind: Calm:0
Visibility: 10 mile(s):0
Sky conditions: overcast
Temperature: 77.2 F (25.1 C)
Dew Point: 65.3 F (18.5 C)
Relative Humidity: 66%
Pressure (altimeter): 30.2 in. Hg (1022 hPa)
ob: KERV 281435Z AUTO 00000KT 10SM BKN047 OVC120 25/19 A3020 RMK AO2 T02510185
cycle: 14

Station Type Date Time Source
KERV TAF UTC NOAA

Error!

Example: see airport list